createdAt,value
2022-10-08T00:01:21.146Z,77.15
2022-10-08T00:03:50.598Z,76.37
2022-10-08T00:06:25.303Z,76.43
2022-10-08T00:09:00.453Z,76.06
2022-10-08T00:11:32.981Z,76.75
2022-10-08T00:14:01.942Z,75.68
2022-10-08T00:16:29.955Z,75.69
2022-10-08T00:19:02.254Z,76.14
2022-10-08T00:21:31.577Z,75.86
2022-10-08T00:23:59.648Z,76.33
2022-10-08T00:26:27.611Z,76.23
2022-10-08T00:28:58.900Z,75.46
2022-10-08T00:31:31.881Z,74.81
2022-10-08T00:34:01.027Z,75.68
2022-10-08T00:36:31.698Z,76.28
2022-10-08T00:39:04.069Z,75.49
2022-10-08T00:41:32.848Z,75.56
2022-10-08T00:44:03.770Z,76.13
2022-10-08T00:46:45.929Z,76.10
2022-10-08T00:49:17.932Z,75.14
2022-10-08T00:51:51.068Z,75.28
2022-10-08T00:54:18.711Z,75.03
2022-10-08T00:56:47.854Z,76.00
2022-10-08T00:59:14.842Z,76.00
2022-10-08T01:01:43.591Z,75.50
2022-10-08T01:04:12.115Z,75.63
2022-10-08T01:06:50.257Z,75.72
2022-10-08T01:09:19.861Z,76.48
2022-10-08T01:11:55.355Z,76.81
2022-10-08T01:14:46.799Z,76.86
2022-10-08T01:17:32.207Z,76.75
2022-10-08T01:20:33.755Z,76.29
2022-10-08T01:23:15.775Z,76.60
2022-10-08T01:25:45.290Z,76.82
2022-10-08T01:28:26.846Z,77.27
2022-10-08T01:31:46.354Z,76.87
2022-10-08T01:34:35.994Z,77.69
2022-10-08T01:37:03.654Z,76.79
2022-10-08T01:39:33.268Z,76.79
2022-10-08T01:42:00.724Z,76.65
2022-10-08T01:44:32.720Z,76.69
2022-10-08T01:47:01.591Z,77.35
2022-10-08T01:49:31.968Z,76.46
2022-10-08T01:52:04.192Z,76.45
2022-10-08T01:54:32.185Z,76.55
2022-10-08T01:57:03.493Z,76.84
2022-10-08T01:59:54.319Z,75.71
2022-10-08T02:02:22.874Z,76.35
2022-10-08T02:04:53.358Z,76.50
2022-10-08T02:07:31.036Z,76.87
2022-10-08T02:10:08.863Z,76.75
2022-10-08T02:12:36.253Z,76.57
2022-10-08T02:15:04.524Z,75.79
2022-10-08T02:17:49.933Z,76.32
2022-10-08T02:20:21.290Z,77.37
2022-10-08T02:23:06.031Z,76.74
2022-10-08T02:25:53.804Z,76.07
2022-10-08T02:28:36.447Z,77.00
2022-10-08T02:31:15.197Z,77.45
2022-10-08T02:33:52.174Z,76.96
2022-10-08T02:36:23.679Z,77.04
2022-10-08T02:38:53.878Z,76.50
2022-10-08T02:41:22.046Z,76.57
2022-10-08T02:43:49.655Z,76.80
2022-10-08T02:46:20.388Z,76.71
2022-10-08T02:48:53.016Z,77.57
2022-10-08T02:51:20.952Z,77.21
2022-10-08T02:53:49.353Z,77.49
2022-10-08T02:56:43.760Z,77.79
2022-10-08T02:59:10.991Z,78.04
2022-10-08T03:01:42.614Z,78.21
2022-10-08T03:04:14.273Z,78.65
2022-10-08T03:06:41.481Z,79.24
2022-10-08T03:09:10.983Z,80.95
2022-10-08T03:11:37.809Z,81.68
2022-10-08T03:14:06.016Z,81.22
2022-10-08T03:16:40.829Z,82.43
2022-10-08T03:19:10.285Z,81.38
2022-10-08T03:21:39.325Z,81.52
2022-10-08T03:24:07.097Z,81.40
2022-10-08T03:26:33.680Z,81.80
2022-10-08T03:29:00.244Z,82.73
2022-10-08T03:31:26.928Z,83.00
2022-10-08T03:33:54.341Z,83.52
2022-10-08T03:36:22.369Z,82.83
2022-10-08T03:38:49.479Z,83.27
2022-10-08T03:41:16.899Z,83.37
2022-10-08T03:43:43.499Z,83.61
2022-10-08T03:46:11.520Z,83.45
2022-10-08T03:48:38.421Z,83.15
2022-10-08T03:51:08.365Z,83.72
2022-10-08T03:53:36.899Z,84.59
2022-10-08T03:56:08.867Z,84.75
2022-10-08T03:58:35.604Z,85.23
2022-10-08T04:01:08.734Z,86.58
2022-10-08T04:03:35.404Z,86.43
2022-10-08T04:06:02.203Z,86.60
2022-10-08T04:08:29.105Z,87.06
2022-10-08T04:10:55.815Z,90.05
2022-10-08T04:13:22.453Z,91.14
2022-10-08T04:15:50.722Z,91.59
2022-10-08T04:18:17.542Z,93.63
2022-10-08T04:20:44.160Z,94.91
2022-10-08T04:23:11.632Z,95.32
2022-10-08T04:25:38.263Z,95.50
2022-10-08T04:28:05.411Z,95.66
2022-10-08T04:30:32.881Z,95.42
2022-10-08T04:32:59.442Z,95.59
2022-10-08T04:35:26.237Z,95.50
2022-10-08T04:37:52.835Z,94.89
2022-10-08T04:40:19.427Z,94.08
2022-10-08T04:42:51.104Z,94.75
2022-10-08T04:45:17.823Z,95.38
2022-10-08T04:47:44.387Z,95.78
2022-10-08T04:50:10.997Z,94.74
2022-10-08T04:52:37.617Z,95.10
2022-10-08T04:55:04.431Z,95.43
2022-10-08T04:57:31.786Z,94.32
2022-10-08T05:00:17.001Z,94.36
2022-10-08T05:02:45.334Z,94.66
2022-10-08T05:05:12.200Z,94.88
2022-10-08T05:07:38.766Z,94.45
2022-10-08T05:10:05.813Z,94.92
2022-10-08T05:12:32.470Z,95.08
2022-10-08T05:14:59.125Z,94.38
2022-10-08T05:17:25.720Z,94.89
2022-10-08T05:19:52.795Z,94.08
2022-10-08T05:22:19.444Z,94.54
2022-10-08T05:25:08.229Z,94.00
2022-10-08T05:27:35.503Z,93.40
2022-10-08T05:30:02.839Z,93.41
2022-10-08T05:32:29.385Z,92.55
2022-10-08T05:34:55.975Z,92.52
2022-10-08T05:37:22.664Z,92.41
2022-10-08T05:39:49.679Z,93.12
2022-10-08T05:42:16.235Z,93.42
2022-10-08T05:44:45.384Z,93.98
2022-10-08T05:47:12.274Z,94.43
2022-10-08T05:49:38.877Z,94.58
2022-10-08T05:52:05.480Z,95.65
2022-10-08T05:54:32.202Z,95.44
2022-10-08T05:56:58.832Z,95.08
2022-10-08T05:59:25.535Z,95.39
2022-10-08T06:01:52.457Z,95.27
2022-10-08T06:04:19.523Z,95.83
2022-10-08T06:06:46.506Z,95.91
2022-10-08T06:14:07.587Z,95.45
2022-10-08T06:17:40.136Z,95.96
2022-10-08T06:28:34.542Z,96.76
2022-10-08T06:35:26.760Z,97.25
2022-10-08T06:37:53.419Z,97.42
2022-10-08T06:40:20.075Z,98.02
2022-10-08T06:42:46.834Z,98.54
2022-10-08T06:45:13.698Z,98.68
2022-10-08T06:47:40.355Z,98.09
2022-10-08T06:50:07.452Z,97.70
2022-10-08T06:52:34.137Z,97.93
2022-10-08T06:55:00.718Z,96.99
2022-10-08T06:57:27.632Z,96.65
2022-10-08T06:59:54.691Z,96.22
2022-10-08T07:02:21.394Z,96.80
2022-10-08T07:04:48.100Z,97.58
2022-10-08T07:07:15.643Z,96.87
2022-10-08T07:09:42.187Z,96.40
2022-10-08T07:12:08.786Z,93.07
2022-10-08T07:14:35.378Z,93.23
2022-10-08T07:17:01.976Z,92.95
2022-10-08T07:19:28.535Z,94.22
2022-10-08T07:22:00.407Z,93.40
2022-10-08T07:24:27.893Z,93.35
2022-10-08T07:26:54.500Z,91.72
2022-10-08T07:29:24.581Z,91.69
2022-10-08T07:31:51.275Z,90.31
2022-10-08T07:34:17.921Z,90.12
2022-10-08T07:36:44.513Z,89.56
2022-10-08T07:39:13.744Z,88.37
2022-10-08T07:41:40.707Z,87.39
2022-10-08T07:44:08.117Z,89.30
2022-10-08T07:46:42.523Z,87.57
2022-10-08T07:49:09.799Z,87.20
2022-10-08T07:51:36.559Z,87.09
2022-10-08T07:54:04.876Z,88.69
2022-10-08T07:56:32.458Z,88.27
2022-10-08T07:59:00.113Z,87.28
2022-10-08T08:01:30.074Z,87.75
2022-10-08T08:04:15.428Z,87.87
2022-10-08T08:06:52.337Z,88.27
2022-10-08T08:09:19.260Z,87.76
2022-10-08T08:11:48.543Z,87.42
2022-10-08T08:14:15.251Z,87.20
2022-10-08T08:16:41.972Z,86.71
2022-10-08T08:19:10.638Z,86.46
2022-10-08T08:21:39.101Z,86.75
2022-10-08T08:24:08.535Z,86.45
2022-10-08T08:26:36.808Z,86.36
2022-10-08T08:29:10.504Z,85.53
2022-10-08T08:31:39.671Z,84.77
2022-10-08T08:34:08.612Z,84.69
2022-10-08T08:36:38.384Z,85.50
2022-10-08T08:39:06.314Z,84.49
2022-10-08T08:41:51.348Z,84.09
2022-10-08T08:44:18.674Z,84.90
2022-10-08T08:46:53.954Z,85.45
2022-10-08T08:49:23.814Z,85.99
2022-10-08T08:51:51.485Z,84.65
2022-10-08T08:54:18.130Z,83.60
2022-10-08T08:56:44.755Z,82.43
2022-10-08T08:59:33.870Z,82.04
2022-10-08T09:02:05.855Z,81.91
2022-10-08T09:04:45.539Z,80.95
2022-10-08T09:07:16.810Z,81.40
2022-10-08T09:09:52.128Z,79.66
2022-10-08T09:12:35.571Z,78.44
2022-10-08T09:15:02.864Z,77.65
2022-10-08T09:17:35.674Z,76.79
2022-10-08T09:20:02.871Z,77.33
2022-10-08T09:22:38.415Z,77.25
2022-10-08T09:25:17.495Z,77.62
2022-10-08T09:28:01.719Z,77.18
2022-10-08T09:30:44.949Z,76.61
2022-10-08T09:33:18.549Z,76.78
2022-10-08T09:35:50.408Z,74.91
2022-10-08T09:38:35.758Z,74.98
2022-10-08T09:41:18.883Z,74.91
2022-10-08T09:44:10.188Z,73.61
2022-10-08T09:46:43.392Z,72.31
2022-10-08T09:49:34.547Z,71.59
2022-10-08T09:52:13.470Z,70.43
2022-10-08T09:54:48.697Z,69.67
2022-10-08T09:57:17.335Z,69.88
2022-10-08T09:59:50.912Z,68.60
2022-10-08T10:02:29.914Z,69.23
2022-10-08T10:04:57.242Z,69.34
2022-10-08T10:07:24.587Z,68.71
2022-10-08T10:09:55.339Z,68.24
2022-10-08T10:12:29.134Z,67.50
2022-10-08T10:15:02.167Z,65.60
2022-10-08T10:18:06.864Z,64.87
2022-10-08T10:20:35.967Z,65.21
2022-10-08T10:23:12.586Z,64.42
2022-10-08T10:25:57.722Z,64.75
2022-10-08T10:29:06.792Z,64.17
2022-10-08T10:31:50.068Z,61.50
2022-10-08T10:34:23.764Z,62.09
2022-10-08T10:37:01.691Z,61.83
2022-10-08T10:39:45.027Z,61.48
2022-10-08T10:42:18.701Z,61.64
2022-10-08T10:45:00.659Z,61.68
2022-10-08T10:47:32.311Z,61.63
2022-10-08T10:50:00.774Z,60.79
2022-10-08T10:53:02.655Z,57.92
2022-10-08T10:55:54.476Z,56.66
2022-10-08T10:58:40.312Z,56.25
2022-10-08T11:01:40.249Z,54.79
2022-10-08T11:04:33.059Z,54.57
2022-10-08T11:07:03.744Z,55.04
2022-10-08T11:09:36.909Z,53.66
2022-10-08T11:12:24.810Z,53.72
2022-10-08T11:14:58.022Z,53.29
2022-10-08T11:17:36.163Z,54.16
2022-10-08T11:20:02.843Z,53.79
2022-10-08T11:22:37.530Z,54.05
2022-10-08T11:25:22.092Z,53.86
2022-10-08T11:28:09.968Z,54.44
2022-10-08T11:30:47.140Z,54.61
2022-10-08T11:33:14.966Z,54.28
2022-10-08T11:35:50.120Z,54.13
2022-10-08T11:38:28.712Z,54.97
2022-10-08T11:40:56.513Z,55.91
2022-10-08T11:43:31.098Z,57.39
2022-10-08T11:46:20.352Z,58.12
2022-10-08T11:48:49.693Z,58.53
2022-10-08T11:51:21.962Z,59.13
2022-10-08T11:54:07.740Z,58.88
2022-10-08T11:56:36.660Z,58.31
2022-10-08T11:59:34.581Z,58.70
2022-10-08T12:02:04.610Z,58.78
2022-10-08T12:04:37.283Z,58.36
2022-10-08T12:07:33.761Z,58.59
2022-10-08T12:10:25.060Z,58.12
2022-10-08T12:12:52.596Z,58.19
2022-10-08T12:15:25.176Z,59.24
2022-10-08T12:17:53.168Z,60.36
2022-10-08T12:20:21.106Z,60.25
2022-10-08T12:23:07.474Z,60.24
2022-10-08T12:25:35.914Z,60.22
2022-10-08T12:28:20.910Z,60.03
2022-10-08T12:30:51.355Z,60.08
2022-10-08T12:33:18.360Z,60.20
2022-10-08T12:36:01.481Z,60.28
2022-10-08T12:38:51.209Z,60.46
2022-10-08T12:41:32.838Z,57.50
2022-10-08T12:44:34.789Z,57.57
2022-10-08T12:47:08.409Z,57.83
2022-10-08T12:49:52.629Z,57.43
2022-10-08T12:52:22.930Z,55.95
2022-10-08T12:54:55.309Z,56.17
2022-10-08T12:57:26.217Z,56.04
2022-10-08T12:59:53.572Z,56.05
2022-10-08T13:02:32.510Z,56.15
2022-10-08T13:04:59.160Z,54.79
2022-10-08T13:07:28.674Z,53.42
2022-10-08T13:09:57.285Z,51.82
2022-10-08T13:12:23.978Z,51.80
2022-10-08T13:15:01.791Z,51.54
2022-10-08T13:17:33.236Z,52.15
2022-10-08T13:20:18.610Z,52.73
2022-10-08T13:22:45.421Z,53.27
2022-10-08T13:25:36.124Z,53.53
2022-10-08T13:28:36.091Z,53.81
2022-10-08T13:31:21.813Z,54.93
2022-10-08T13:33:48.493Z,54.75
2022-10-08T13:36:21.323Z,54.90
2022-10-08T13:38:47.941Z,54.16
2022-10-08T13:41:23.426Z,54.21
2022-10-08T13:43:50.159Z,53.86
2022-10-08T13:46:16.915Z,54.12
2022-10-08T13:48:44.420Z,54.68
2022-10-08T13:51:11.196Z,54.94
2022-10-08T13:53:38.070Z,55.08
2022-10-08T13:56:05.801Z,55.17
2022-10-08T13:58:32.749Z,54.59
2022-10-08T14:00:59.546Z,54.03
2022-10-08T14:03:26.191Z,53.81
2022-10-08T14:05:52.823Z,53.53
2022-10-08T14:08:24.707Z,53.04
2022-10-08T14:10:57.486Z,52.47
2022-10-08T14:13:24.874Z,51.97
2022-10-08T14:15:51.570Z,52.40
2022-10-08T14:18:18.347Z,53.02
2022-10-08T14:20:45.004Z,52.54
2022-10-08T14:23:15.035Z,52.81
2022-10-08T14:25:41.818Z,53.09
2022-10-08T14:28:08.500Z,52.51
2022-10-08T14:30:35.122Z,51.81
2022-10-08T14:33:01.763Z,50.93
2022-10-08T14:35:28.428Z,51.41
2022-10-08T14:37:57.097Z,51.20
2022-10-08T14:40:23.969Z,51.77
2022-10-08T14:42:51.112Z,52.23
2022-10-08T14:45:18.095Z,52.70
2022-10-08T14:47:47.035Z,52.82
2022-10-08T14:50:13.724Z,52.96
2022-10-08T14:52:44.073Z,52.66
2022-10-08T14:55:11.929Z,53.35
2022-10-08T14:57:38.532Z,53.75
2022-10-08T15:00:05.955Z,53.81
2022-10-08T15:02:34.237Z,53.65
2022-10-08T15:05:04.016Z,53.92
2022-10-08T15:07:30.867Z,54.31
2022-10-08T15:09:57.755Z,54.44
2022-10-08T15:12:24.743Z,54.38
2022-10-08T15:14:51.361Z,54.25
2022-10-08T15:17:18.178Z,54.75
2022-10-08T15:19:44.971Z,54.44
2022-10-08T15:22:12.772Z,54.61
2022-10-08T15:24:39.400Z,54.08
2022-10-08T15:27:06.106Z,53.99
2022-10-08T15:29:32.826Z,53.23
2022-10-08T15:31:59.563Z,53.21
2022-10-08T15:34:26.309Z,53.01
2022-10-08T15:36:53.995Z,53.20
2022-10-08T15:39:20.715Z,52.91
2022-10-08T15:41:49.886Z,52.48
2022-10-08T15:44:28.331Z,52.18
2022-10-08T15:47:06.440Z,52.21
2022-10-08T15:49:41.713Z,52.35
2022-10-08T15:52:09.459Z,52.41
2022-10-08T15:54:39.906Z,52.21
2022-10-08T15:57:07.878Z,52.26
2022-10-08T15:59:34.556Z,52.23
2022-10-08T16:02:01.293Z,52.05
2022-10-08T16:04:29.744Z,51.27
2022-10-08T16:07:01.021Z,51.57
2022-10-08T16:09:28.687Z,52.07
2022-10-08T16:11:55.492Z,52.00
2022-10-08T16:14:23.996Z,51.96
2022-10-08T16:16:51.629Z,52.18
2022-10-08T16:19:21.809Z,52.89
2022-10-08T16:21:50.143Z,53.29
2022-10-08T16:24:17.857Z,53.19
2022-10-08T16:26:45.245Z,53.37
2022-10-08T16:29:16.163Z,53.56
2022-10-08T16:31:44.107Z,53.03
2022-10-08T16:34:21.670Z,52.94
2022-10-08T16:36:49.017Z,53.44
2022-10-08T16:39:18.149Z,53.34
2022-10-08T16:41:45.602Z,54.26
2022-10-08T16:44:14.942Z,54.24
2022-10-08T16:46:48.382Z,54.61
2022-10-08T16:49:25.156Z,55.32
2022-10-08T16:51:58.017Z,55.06
2022-10-08T16:54:24.996Z,55.22
2022-10-08T16:56:51.929Z,55.19
2022-10-08T16:59:20.842Z,55.52
2022-10-08T17:01:50.277Z,55.39
2022-10-08T17:04:17.957Z,55.71
2022-10-08T17:06:45.267Z,55.82
2022-10-08T17:09:12.286Z,56.28
2022-10-08T17:11:38.985Z,56.13
2022-10-08T17:14:07.630Z,56.53
2022-10-08T17:16:35.007Z,56.77
2022-10-08T17:19:02.810Z,56.95
2022-10-08T17:21:30.107Z,56.92
2022-10-08T17:23:57.723Z,57.47
2022-10-08T17:26:25.493Z,57.37
2022-10-08T17:28:52.224Z,57.64
2022-10-08T17:31:22.016Z,57.53
2022-10-08T17:33:48.936Z,57.36
2022-10-08T17:36:19.689Z,57.89
2022-10-08T17:38:48.066Z,58.23
2022-10-08T17:41:18.661Z,58.72
2022-10-08T17:43:46.143Z,59.13
2022-10-08T17:46:18.380Z,58.82
2022-10-08T17:48:45.451Z,58.99
2022-10-08T17:51:15.253Z,58.80
2022-10-08T17:53:42.696Z,59.41
2022-10-08T17:56:11.974Z,59.10
2022-10-08T17:58:39.143Z,59.17
2022-10-08T18:01:12.656Z,59.20
2022-10-08T18:03:40.893Z,59.21
2022-10-08T18:06:09.632Z,59.46
2022-10-08T18:08:36.658Z,59.20
2022-10-08T18:11:05.017Z,59.93
2022-10-08T18:13:32.357Z,60.06
2022-10-08T18:16:12.708Z,60.46
2022-10-08T18:18:40.171Z,60.70
2022-10-08T18:21:07.579Z,60.84
2022-10-08T18:23:35.714Z,61.10
2022-10-08T18:26:32.378Z,60.84
2022-10-08T18:29:04.455Z,61.04
2022-10-08T18:31:32.671Z,61.57
2022-10-08T18:34:01.899Z,61.67
2022-10-08T18:36:30.347Z,61.33
2022-10-08T18:38:59.555Z,61.32
2022-10-08T18:41:28.987Z,61.55
2022-10-08T18:43:56.340Z,62.04
2022-10-08T18:46:23.549Z,61.73
2022-10-08T18:48:50.447Z,61.71
2022-10-08T18:51:20.140Z,61.89
2022-10-08T18:53:47.303Z,62.14
2022-10-08T18:56:31.238Z,61.85
2022-10-08T18:58:59.514Z,62.68
2022-10-08T19:01:28.664Z,62.34
2022-10-08T19:03:57.179Z,62.05
2022-10-08T19:06:26.362Z,62.17
2022-10-08T19:08:53.206Z,62.47
2022-10-08T19:11:22.190Z,62.72
2022-10-08T19:13:49.276Z,63.00
2022-10-08T19:16:16.395Z,63.44
2022-10-08T19:19:02.451Z,63.42
2022-10-08T19:21:30.557Z,63.60
2022-10-08T19:23:58.545Z,63.43
2022-10-08T19:26:26.525Z,63.49
2022-10-08T19:28:54.185Z,63.27
2022-10-08T19:31:22.575Z,63.18
2022-10-08T19:33:54.391Z,63.52
2022-10-08T19:36:22.077Z,64.08
2022-10-08T19:39:00.393Z,64.44
2022-10-08T19:41:27.864Z,65.20
2022-10-08T19:43:55.715Z,65.91
2022-10-08T19:46:23.384Z,66.29
2022-10-08T19:48:52.217Z,66.97
2022-10-08T19:51:19.081Z,67.40
2022-10-08T19:53:46.850Z,68.23
2022-10-08T19:56:14.525Z,68.84
2022-10-08T19:58:47.604Z,69.09
2022-10-08T20:01:18.440Z,68.73
2022-10-08T20:03:45.418Z,68.95
2022-10-08T20:06:15.186Z,68.92
2022-10-08T20:08:41.996Z,68.82
2022-10-08T20:11:12.182Z,68.54
2022-10-08T20:13:40.520Z,68.58
2022-10-08T20:16:16.279Z,69.77
2022-10-08T20:18:51.474Z,70.24
2022-10-08T20:21:19.184Z,69.55
2022-10-08T20:23:46.521Z,69.10
2022-10-08T20:26:15.624Z,69.26
2022-10-08T20:28:43.314Z,68.30
2022-10-08T20:31:19.154Z,69.45
2022-10-08T20:33:46.621Z,69.28
2022-10-08T20:36:16.084Z,70.22
2022-10-08T20:38:43.630Z,71.14
2022-10-08T20:41:10.336Z,71.66
2022-10-08T20:43:38.076Z,70.91
2022-10-08T20:46:12.917Z,72.54
2022-10-08T20:48:41.374Z,72.81
2022-10-08T20:51:27.973Z,73.14
2022-10-08T20:54:06.913Z,73.79
2022-10-08T20:56:39.559Z,73.87
2022-10-08T20:59:11.492Z,73.94
2022-10-08T21:01:38.983Z,73.28
2022-10-08T21:04:06.402Z,74.24
2022-10-08T21:06:51.981Z,74.08
2022-10-08T21:09:20.507Z,75.02
2022-10-08T21:11:47.364Z,74.01
2022-10-08T21:14:22.529Z,73.62
2022-10-08T21:16:49.536Z,73.93
2022-10-08T21:19:19.132Z,74.55
2022-10-08T21:21:45.792Z,74.01
2022-10-08T21:24:12.392Z,74.66
2022-10-08T21:26:40.714Z,74.74
2022-10-08T21:29:09.625Z,75.31
2022-10-08T21:31:37.839Z,75.07
2022-10-08T21:34:05.457Z,76.25
2022-10-08T21:36:37.810Z,77.04
2022-10-08T21:39:06.653Z,76.74
2022-10-08T21:41:34.856Z,75.65
2022-10-08T21:44:03.099Z,75.19
2022-10-08T21:46:31.733Z,74.73
2022-10-08T21:49:04.181Z,75.32
2022-10-08T21:51:31.745Z,75.12
2022-10-08T21:54:00.367Z,75.72
2022-10-08T21:56:29.576Z,75.96
2022-10-08T21:59:00.613Z,75.94
2022-10-08T22:01:30.321Z,74.99
2022-10-08T22:04:00.274Z,75.96
2022-10-08T22:06:32.090Z,76.87
2022-10-08T22:08:59.700Z,76.04
2022-10-08T22:11:26.553Z,74.64
2022-10-08T22:13:53.222Z,75.06
2022-10-08T22:16:21.669Z,75.25
2022-10-08T22:18:48.692Z,75.64
2022-10-08T22:21:17.423Z,75.46
2022-10-08T22:23:44.076Z,75.35
2022-10-08T22:26:21.945Z,75.74
2022-10-08T22:28:49.334Z,75.74
2022-10-08T22:31:17.493Z,76.40
2022-10-08T22:33:44.255Z,76.61
2022-10-08T22:36:14.075Z,76.42
2022-10-08T22:38:41.855Z,76.73
2022-10-08T22:41:10.870Z,77.49
2022-10-08T22:43:38.219Z,77.45
2022-10-08T22:46:07.536Z,76.73
2022-10-08T22:48:34.376Z,76.18
2022-10-08T22:51:07.251Z,77.07
2022-10-08T22:53:34.480Z,77.21
2022-10-08T22:56:05.311Z,76.82
2022-10-08T22:58:32.556Z,76.53
2022-10-08T23:01:02.045Z,76.23
2022-10-08T23:03:28.985Z,77.33
2022-10-08T23:06:17.776Z,76.94
2022-10-08T23:08:45.899Z,75.84
2022-10-08T23:11:13.407Z,76.94
2022-10-08T23:13:40.115Z,78.26
2022-10-08T23:16:09.016Z,77.38
2022-10-08T23:18:38.669Z,78.21
2022-10-08T23:21:10.302Z,78.25
2022-10-08T23:23:36.915Z,78.75
2022-10-08T23:26:05.652Z,78.93
2022-10-08T23:28:33.360Z,79.19
2022-10-08T23:31:10.198Z,77.80
2022-10-08T23:33:38.523Z,77.79
2022-10-08T23:36:06.828Z,78.34
2022-10-08T23:38:34.491Z,76.84
2022-10-08T23:41:02.215Z,76.68
2022-10-08T23:43:29.406Z,76.78
2022-10-08T23:45:56.532Z,78.26
2022-10-08T23:48:23.189Z,77.98
2022-10-08T23:50:51.313Z,77.02
2022-10-08T23:53:19.393Z,77.64
2022-10-08T23:55:46.523Z,77.34
2022-10-08T23:58:14.242Z,78.68
